createdAt,value
2023-03-29T00:00:50.665Z,8.89
2023-03-29T00:01:50.733Z,8.77
2023-03-29T00:02:50.844Z,8.61
2023-03-29T00:03:50.841Z,8.68
2023-03-29T00:04:50.826Z,8.79
2023-03-29T00:05:50.863Z,8.78
2023-03-29T00:06:50.923Z,8.84
2023-03-29T00:07:50.981Z,8.95
2023-03-29T00:08:51.028Z,8.81
2023-03-29T00:09:51.086Z,8.90
2023-03-29T00:10:51.133Z,9.08
2023-03-29T00:11:51.198Z,9.13
2023-03-29T00:12:51.157Z,8.92
2023-03-29T00:13:51.214Z,8.74
2023-03-29T00:14:51.234Z,8.72
2023-03-29T00:15:51.233Z,8.64
2023-03-29T00:16:51.353Z,8.57
2023-03-29T00:17:51.303Z,8.59
2023-03-29T00:18:51.279Z,8.54
2023-03-29T00:19:51.338Z,8.56
2023-03-29T00:20:51.382Z,8.81
2023-03-29T00:21:51.460Z,8.72
2023-03-29T00:22:51.491Z,8.74
2023-03-29T00:23:51.551Z,8.75
2023-03-29T00:24:51.557Z,8.60
2023-03-29T00:25:51.622Z,8.60
2023-03-29T00:26:51.636Z,8.60
2023-03-29T00:27:51.683Z,8.52
2023-03-29T00:28:51.749Z,8.20
2023-03-29T00:29:51.816Z,8.27
2023-03-29T00:30:51.885Z,8.50
2023-03-29T00:31:52.101Z,8.41
2023-03-29T00:32:52.021Z,8.28
2023-03-29T00:33:51.973Z,8.31
2023-03-29T00:34:52.022Z,8.14
2023-03-29T00:35:52.085Z,8.16
2023-03-29T00:36:52.030Z,8.05
2023-03-29T00:37:52.115Z,8.26
2023-03-29T00:38:52.105Z,8.24
2023-03-29T00:39:52.138Z,8.35
2023-03-29T00:40:52.185Z,8.39
2023-03-29T00:41:52.204Z,8.21
2023-03-29T00:42:52.244Z,8.09
2023-03-29T00:43:52.195Z,8.13
2023-03-29T00:44:52.238Z,8.21
2023-03-29T00:45:52.284Z,8.38
2023-03-29T00:46:52.447Z,8.42
2023-03-29T00:47:52.429Z,8.34
2023-03-29T00:48:52.401Z,8.20
2023-03-29T00:49:52.439Z,8.08
2023-03-29T00:50:52.489Z,8.02
2023-03-29T00:51:52.558Z,8.08
2023-03-29T00:52:52.585Z,8.03
2023-03-29T00:53:52.618Z,7.98
2023-03-29T00:54:52.637Z,7.80
2023-03-29T00:55:52.722Z,7.91
2023-03-29T00:56:52.736Z,8.01
2023-03-29T00:57:52.689Z,8.01
2023-03-29T00:58:52.747Z,7.87
2023-03-29T00:59:52.762Z,7.95
2023-03-29T01:00:52.814Z,7.98
2023-03-29T01:01:52.878Z,7.88
2023-03-29T01:02:53.002Z,7.83
2023-03-29T01:03:53.053Z,7.78
2023-03-29T01:04:52.957Z,7.69
2023-03-29T01:05:53.005Z,7.77
2023-03-29T01:06:53.079Z,7.66
2023-03-29T01:07:53.119Z,7.87
2023-03-29T01:08:53.133Z,7.53
2023-03-29T01:09:53.157Z,7.72
2023-03-29T01:10:53.205Z,7.83
2023-03-29T01:11:53.260Z,7.87
2023-03-29T01:12:53.248Z,7.74
2023-03-29T01:13:53.301Z,7.90
2023-03-29T01:14:53.289Z,7.74
2023-03-29T01:15:53.345Z,7.61
2023-03-29T01:16:53.426Z,7.66
2023-03-29T01:17:53.475Z,7.70
2023-03-29T01:18:53.430Z,7.80
2023-03-29T01:19:53.472Z,7.95
2023-03-29T01:20:53.531Z,8.01
2023-03-29T01:21:53.573Z,8.13
2023-03-29T01:22:53.612Z,7.91
2023-03-29T01:23:53.659Z,7.69
2023-03-29T01:24:53.666Z,7.70
2023-03-29T01:25:53.724Z,7.62
2023-03-29T01:26:53.760Z,7.77
2023-03-29T01:27:53.820Z,7.95
2023-03-29T01:28:53.840Z,8.02
2023-03-29T01:29:53.908Z,7.98
2023-03-29T01:30:53.958Z,7.56
2023-03-29T01:31:53.978Z,7.48
2023-03-29T01:32:54.028Z,7.48
2023-03-29T01:33:54.044Z,7.62
2023-03-29T01:34:54.092Z,7.99
2023-03-29T01:35:54.222Z,8.08
2023-03-29T01:36:54.161Z,7.99
2023-03-29T01:37:54.209Z,7.80
2023-03-29T01:38:54.257Z,7.91
2023-03-29T01:39:54.303Z,8.01
2023-03-29T01:40:54.368Z,7.84
2023-03-29T01:41:54.434Z,7.69
2023-03-29T01:42:54.421Z,7.44
2023-03-29T01:43:54.403Z,7.53
2023-03-29T01:44:54.447Z,7.61
2023-03-29T01:45:54.555Z,7.61
2023-03-29T01:46:54.548Z,7.72
2023-03-29T01:47:54.693Z,7.74
2023-03-29T01:48:54.646Z,8.01
2023-03-29T01:49:54.699Z,7.99
2023-03-29T01:50:54.746Z,7.72
2023-03-29T01:51:54.801Z,7.90
2023-03-29T01:52:54.842Z,7.98
2023-03-29T01:53:54.882Z,8.09
2023-03-29T01:54:54.928Z,8.03
2023-03-29T01:55:54.969Z,8.31
2023-03-29T01:56:55.090Z,8.16
2023-03-29T01:57:55.045Z,8.38
2023-03-29T01:58:55.117Z,8.45
2023-03-29T01:59:55.100Z,8.49
2023-03-29T02:00:55.164Z,8.21
2023-03-29T02:01:55.238Z,8.01
2023-03-29T02:02:55.388Z,8.18
2023-03-29T02:03:55.279Z,8.11
2023-03-29T02:04:55.327Z,7.90
2023-03-29T02:05:55.380Z,7.90
2023-03-29T02:06:55.427Z,8.09
2023-03-29T02:07:55.482Z,7.96
2023-03-29T02:08:55.531Z,8.17
2023-03-29T02:09:55.593Z,8.16
2023-03-29T02:10:55.624Z,8.02
2023-03-29T02:11:55.677Z,7.67
2023-03-29T02:12:55.716Z,7.69
2023-03-29T02:13:55.749Z,7.70
2023-03-29T02:14:55.796Z,7.91
2023-03-29T02:15:55.988Z,7.95
2023-03-29T02:16:55.866Z,8.09
2023-03-29T02:17:55.931Z,8.16
2023-03-29T02:18:55.997Z,8.14
2023-03-29T02:19:55.968Z,7.70
2023-03-29T02:20:56.034Z,7.85
2023-03-29T02:21:56.056Z,8.03
2023-03-29T02:22:56.158Z,8.13
2023-03-29T02:23:56.168Z,8.13
2023-03-29T02:24:56.214Z,7.78
2023-03-29T02:25:56.256Z,7.61
2023-03-29T02:26:56.302Z,7.90
2023-03-29T02:27:56.366Z,8.01
2023-03-29T02:28:56.419Z,7.72
2023-03-29T02:29:56.431Z,7.44
2023-03-29T02:30:56.473Z,7.43
2023-03-29T02:31:56.471Z,7.62
2023-03-29T02:32:56.558Z,7.72
2023-03-29T02:33:56.515Z,7.66
2023-03-29T02:34:56.570Z,7.64
2023-03-29T02:35:56.650Z,7.81
2023-03-29T02:36:56.634Z,7.70
2023-03-29T02:37:56.673Z,7.77
2023-03-29T02:38:56.711Z,7.85
2023-03-29T02:39:56.771Z,7.98
2023-03-29T02:40:56.817Z,8.02
2023-03-29T02:41:56.871Z,7.98
2023-03-29T02:42:56.894Z,8.05
2023-03-29T02:43:56.953Z,7.87
2023-03-29T02:44:57.010Z,7.98
2023-03-29T02:45:57.045Z,8.06
2023-03-29T02:46:57.165Z,8.08
2023-03-29T02:47:57.215Z,8.06
2023-03-29T02:48:57.215Z,7.96
2023-03-29T02:49:57.257Z,7.87
2023-03-29T02:50:57.315Z,7.93
2023-03-29T02:51:57.353Z,7.91
2023-03-29T02:52:57.390Z,7.74
2023-03-29T02:53:57.442Z,7.84
2023-03-29T02:54:57.490Z,7.81
2023-03-29T02:55:57.570Z,7.75
2023-03-29T02:56:57.583Z,7.96
2023-03-29T02:57:57.561Z,8.08
2023-03-29T02:58:57.612Z,8.28
2023-03-29T02:59:57.680Z,8.32
2023-03-29T03:00:57.688Z,8.20
2023-03-29T03:01:57.769Z,8.08
2023-03-29T03:02:59.317Z,8.26
2023-03-29T03:03:57.899Z,7.99
2023-03-29T03:04:57.849Z,7.88
2023-03-29T03:05:57.895Z,7.67
2023-03-29T03:06:57.959Z,7.88
2023-03-29T03:07:58.008Z,7.98
2023-03-29T03:08:58.085Z,7.87
2023-03-29T03:09:58.098Z,7.96
2023-03-29T03:10:58.165Z,7.98
2023-03-29T03:11:58.214Z,7.87
2023-03-29T03:12:58.256Z,8.02
2023-03-29T03:13:58.294Z,8.16
2023-03-29T03:14:58.347Z,8.18
2023-03-29T03:15:58.406Z,7.87
2023-03-29T03:16:58.350Z,7.77
2023-03-29T03:17:58.443Z,8.06
2023-03-29T03:18:58.392Z,8.13
2023-03-29T03:19:58.436Z,7.98
2023-03-29T03:20:58.568Z,7.93
2023-03-29T03:21:58.517Z,7.98
2023-03-29T03:22:58.630Z,7.80
2023-03-29T03:23:58.657Z,7.64
2023-03-29T03:24:58.697Z,7.90
2023-03-29T03:25:58.743Z,8.01
2023-03-29T03:26:58.790Z,8.24
2023-03-29T03:27:58.862Z,8.16
2023-03-29T03:28:58.862Z,7.81
2023-03-29T03:29:58.860Z,7.80
2023-03-29T03:30:59.033Z,7.96
2023-03-29T03:31:58.958Z,7.62
2023-03-29T03:32:58.960Z,7.70
2023-03-29T03:33:58.982Z,7.80
2023-03-29T03:34:59.045Z,7.75
2023-03-29T03:35:59.132Z,7.80
2023-03-29T03:36:59.154Z,7.91
2023-03-29T03:37:59.197Z,8.03
2023-03-29T03:38:59.176Z,7.99
2023-03-29T03:39:59.229Z,8.03
2023-03-29T03:40:59.301Z,7.93
2023-03-29T03:41:59.337Z,8.03
2023-03-29T03:42:59.369Z,7.90
2023-03-29T03:43:59.408Z,7.90
2023-03-29T03:44:59.472Z,7.81
2023-03-29T03:45:59.569Z,7.96
2023-03-29T03:46:59.518Z,8.09
2023-03-29T03:47:59.585Z,7.96
2023-03-29T03:48:59.615Z,7.98
2023-03-29T03:49:59.671Z,8.17
2023-03-29T03:50:59.905Z,8.08
2023-03-29T03:51:59.721Z,8.20
2023-03-29T03:52:59.780Z,7.95
2023-03-29T03:53:59.805Z,7.88
2023-03-29T03:54:59.860Z,7.88
2023-03-29T03:55:59.929Z,7.99
2023-03-29T03:57:00.001Z,7.90
2023-03-29T03:58:00.046Z,7.96
2023-03-29T03:59:00.121Z,8.14
2023-03-29T04:00:00.178Z,8.23
2023-03-29T04:01:00.460Z,8.28
2023-03-29T04:02:00.467Z,8.32
2023-03-29T04:03:00.320Z,8.24
2023-03-29T04:04:00.430Z,8.21
2023-03-29T04:05:00.316Z,8.09
2023-03-29T04:06:00.278Z,8.23
2023-03-29T04:07:00.336Z,8.41
2023-03-29T04:08:00.387Z,8.09
2023-03-29T04:09:00.428Z,8.32
2023-03-29T04:10:00.522Z,8.16
2023-03-29T04:11:00.688Z,8.09
2023-03-29T04:12:00.482Z,8.26
2023-03-29T04:13:00.542Z,8.02
2023-03-29T04:14:00.569Z,8.20
2023-03-29T04:15:00.646Z,8.24
2023-03-29T04:16:01.671Z,8.20
2023-03-29T04:17:00.682Z,8.39
2023-03-29T04:18:00.754Z,8.42
2023-03-29T04:19:00.761Z,8.52
2023-03-29T04:20:00.697Z,8.49
2023-03-29T04:21:00.894Z,8.31
2023-03-29T04:22:00.797Z,8.32
2023-03-29T04:23:00.855Z,8.34
2023-03-29T04:24:00.889Z,8.21
2023-03-29T04:25:00.947Z,8.06
2023-03-29T04:26:00.989Z,8.23
2023-03-29T04:27:01.001Z,8.02
2023-03-29T04:28:01.061Z,8.28
2023-03-29T04:29:01.110Z,8.45
2023-03-29T04:30:01.156Z,8.53
2023-03-29T04:31:01.526Z,8.41
2023-03-29T04:32:01.279Z,8.41
2023-03-29T04:33:01.283Z,8.26
2023-03-29T04:34:01.290Z,8.20
2023-03-29T04:35:01.340Z,8.35
2023-03-29T04:36:01.447Z,7.98
2023-03-29T04:37:01.472Z,8.27
2023-03-29T04:38:01.536Z,8.35
2023-03-29T04:39:01.832Z,8.54
2023-03-29T04:40:01.544Z,8.56
2023-03-29T04:41:01.863Z,8.23
2023-03-29T04:42:01.599Z,7.88
2023-03-29T04:43:01.633Z,7.98
2023-03-29T04:44:01.710Z,8.03
2023-03-29T04:45:01.724Z,7.96
2023-03-29T04:46:01.716Z,7.84
2023-03-29T04:47:01.731Z,7.91
2023-03-29T04:48:01.866Z,7.91
2023-03-29T04:49:01.762Z,7.75
2023-03-29T04:50:01.762Z,7.78
2023-03-29T04:51:02.067Z,7.83
2023-03-29T04:52:01.884Z,7.72
2023-03-29T04:53:01.969Z,7.87
2023-03-29T04:54:01.932Z,8.09
2023-03-29T04:55:01.924Z,7.98
2023-03-29T04:56:01.999Z,7.93
2023-03-29T04:57:01.993Z,7.96
2023-03-29T04:58:02.024Z,7.93
2023-03-29T04:59:02.034Z,7.98
2023-03-29T05:00:02.029Z,8.05
2023-03-29T05:01:02.325Z,8.08
2023-03-29T05:02:02.064Z,8.08
2023-03-29T05:03:02.129Z,7.84
2023-03-29T05:04:02.130Z,7.81
2023-03-29T05:05:02.131Z,7.75
2023-03-29T05:06:02.113Z,7.77
2023-03-29T05:07:02.124Z,7.99
2023-03-29T05:08:02.146Z,8.16
2023-03-29T05:09:02.171Z,8.01
2023-03-29T05:10:02.302Z,7.95
2023-03-29T05:11:02.492Z,8.03
2023-03-29T05:12:02.273Z,7.87
2023-03-29T05:13:02.308Z,7.84
2023-03-29T05:14:02.385Z,7.96
2023-03-29T05:15:02.434Z,7.88
2023-03-29T05:16:02.520Z,7.84
2023-03-29T05:17:02.454Z,8.11
2023-03-29T05:18:02.589Z,8.27
2023-03-29T05:19:02.572Z,8.13
2023-03-29T05:20:02.569Z,8.05
2023-03-29T05:21:02.788Z,8.27
2023-03-29T05:22:02.640Z,8.17
2023-03-29T05:23:02.644Z,8.09
2023-03-29T05:24:02.648Z,8.08
2023-03-29T05:25:02.694Z,7.99
2023-03-29T05:26:02.686Z,8.16
2023-03-29T05:27:02.702Z,8.38
2023-03-29T05:28:02.676Z,8.27
2023-03-29T05:29:02.702Z,8.49
2023-03-29T05:30:02.738Z,8.69
2023-03-29T05:31:03.017Z,8.56
2023-03-29T05:32:02.891Z,8.54
2023-03-29T05:33:02.862Z,8.41
2023-03-29T05:34:02.878Z,8.42
2023-03-29T05:35:02.862Z,8.68
2023-03-29T05:36:02.908Z,8.77
2023-03-29T05:37:02.923Z,8.53
2023-03-29T05:38:02.963Z,8.44
2023-03-29T05:39:02.999Z,8.66
2023-03-29T05:40:06.066Z,8.53
2023-03-29T05:41:03.233Z,8.63
2023-03-29T05:42:03.039Z,8.72
2023-03-29T05:43:03.084Z,8.27
2023-03-29T05:44:03.129Z,8.26
2023-03-29T05:45:03.185Z,8.05
2023-03-29T05:46:03.255Z,8.36
2023-03-29T05:47:03.273Z,8.21
2023-03-29T05:48:03.341Z,8.13
2023-03-29T05:49:03.385Z,8.34
2023-03-29T05:50:03.422Z,8.46
2023-03-29T05:51:03.704Z,8.36
2023-03-29T05:52:03.393Z,8.61
2023-03-29T05:53:03.412Z,8.84
2023-03-29T05:54:03.437Z,8.74
2023-03-29T05:55:03.442Z,8.64
2023-03-29T05:56:03.424Z,8.75
2023-03-29T05:57:03.536Z,9.03
2023-03-29T05:58:03.537Z,8.96
2023-03-29T05:59:03.477Z,8.84
2023-03-29T06:00:03.526Z,8.41
2023-03-29T06:01:03.796Z,8.74
2023-03-29T06:02:03.636Z,8.75
2023-03-29T06:03:13.661Z,8.57
2023-03-29T06:04:03.953Z,8.63
2023-03-29T06:05:03.885Z,8.74
2023-03-29T06:06:03.885Z,8.50
2023-03-29T06:07:03.836Z,8.45
2023-03-29T06:08:03.843Z,8.68
2023-03-29T06:09:03.903Z,8.71
2023-03-29T06:10:03.961Z,8.53
2023-03-29T06:11:05.037Z,8.69
2023-03-29T06:12:04.007Z,8.84
2023-03-29T06:13:04.007Z,9.05
2023-03-29T06:14:04.040Z,8.75
2023-03-29T06:15:04.064Z,8.69
2023-03-29T06:16:04.096Z,8.68
2023-03-29T06:17:04.091Z,8.72
2023-03-29T06:18:04.203Z,8.68
2023-03-29T06:19:04.187Z,8.60
2023-03-29T06:20:04.215Z,8.72
2023-03-29T06:21:04.665Z,8.45
2023-03-29T06:22:04.323Z,8.72
2023-03-29T06:23:05.352Z,8.84
2023-03-29T06:24:05.402Z,9.00
2023-03-29T06:25:04.418Z,8.86
2023-03-29T06:26:04.447Z,8.87
2023-03-29T06:27:04.598Z,8.97
2023-03-29T06:28:04.585Z,8.86
2023-03-29T06:29:04.590Z,9.00
2023-03-29T06:30:04.641Z,8.99
2023-03-29T06:31:04.892Z,8.92
2023-03-29T06:32:04.731Z,8.78
2023-03-29T06:33:04.903Z,8.72
2023-03-29T06:34:04.860Z,8.74
2023-03-29T06:35:04.911Z,8.96
2023-03-29T06:36:04.922Z,8.82
2023-03-29T06:37:04.901Z,9.02
2023-03-29T06:38:04.946Z,9.21
2023-03-29T06:39:05.001Z,9.03
2023-03-29T06:40:05.010Z,8.93
2023-03-29T06:41:05.210Z,9.00
2023-03-29T06:42:16.874Z,8.99
2023-03-29T06:43:05.195Z,8.97
2023-03-29T06:44:05.196Z,9.13
2023-03-29T06:45:05.237Z,8.93
2023-03-29T06:46:05.334Z,9.21
2023-03-29T06:47:05.573Z,8.96
2023-03-29T06:48:05.426Z,9.09
2023-03-29T06:49:05.426Z,9.37
2023-03-29T06:50:05.453Z,9.55
2023-03-29T06:51:05.510Z,9.36
2023-03-29T06:52:05.488Z,9.69
2023-03-29T06:53:05.490Z,9.73
2023-03-29T06:54:05.551Z,9.51
2023-03-29T06:55:05.543Z,9.33
2023-03-29T06:56:05.670Z,9.55
2023-03-29T06:57:05.713Z,9.77
2023-03-29T06:58:05.581Z,9.97
2023-03-29T06:59:05.613Z,10.05
2023-03-29T07:00:05.648Z,10.20
2023-03-29T07:01:06.241Z,9.97
2023-03-29T07:02:05.728Z,9.80
2023-03-29T07:03:05.761Z,9.62
2023-03-29T07:04:05.785Z,9.72
2023-03-29T07:05:05.778Z,9.63
2023-03-29T07:06:05.862Z,9.66
2023-03-29T07:07:05.916Z,9.67
2023-03-29T07:08:05.916Z,9.77
2023-03-29T07:09:05.932Z,9.85
2023-03-29T07:10:05.967Z,9.81
2023-03-29T07:11:06.044Z,9.87
2023-03-29T07:12:06.080Z,9.70
2023-03-29T07:13:06.106Z,9.95
2023-03-29T07:14:06.166Z,10.07
2023-03-29T07:15:06.121Z,10.10
2023-03-29T07:16:06.208Z,10.36
2023-03-29T07:17:06.348Z,10.57
2023-03-29T07:18:06.333Z,10.42
2023-03-29T07:19:06.323Z,10.12
2023-03-29T07:20:06.330Z,10.03
2023-03-29T07:21:06.403Z,10.17
2023-03-29T07:22:06.418Z,10.30
2023-03-29T07:23:06.455Z,10.39
2023-03-29T07:24:06.534Z,10.38
2023-03-29T07:25:06.449Z,10.21
2023-03-29T07:26:06.491Z,10.10
2023-03-29T07:27:06.468Z,9.99
2023-03-29T07:28:06.534Z,9.76
2023-03-29T07:29:06.544Z,9.63
2023-03-29T07:30:07.105Z,9.49
2023-03-29T07:31:06.629Z,9.64
2023-03-29T07:32:06.661Z,9.76
2023-03-29T07:33:06.770Z,9.77
2023-03-29T07:34:06.778Z,9.77
2023-03-29T07:35:06.840Z,9.82
2023-03-29T07:36:06.970Z,9.87
2023-03-29T07:37:06.887Z,10.12
2023-03-29T07:38:06.939Z,10.18
2023-03-29T07:39:06.954Z,10.12
2023-03-29T07:40:07.180Z,10.06
2023-03-29T07:41:07.012Z,9.87
2023-03-29T07:42:07.040Z,9.99
2023-03-29T07:43:07.077Z,10.21
2023-03-29T07:44:07.074Z,10.15
2023-03-29T07:45:07.132Z,10.06
2023-03-29T07:46:07.232Z,10.24
2023-03-29T07:47:07.172Z,10.55
2023-03-29T07:48:07.317Z,10.48
2023-03-29T07:49:07.260Z,10.65
2023-03-29T07:50:07.304Z,10.86
2023-03-29T07:51:07.306Z,10.28
2023-03-29T07:52:07.626Z,10.43
2023-03-29T07:53:07.388Z,10.10
2023-03-29T07:54:07.382Z,9.92
2023-03-29T07:55:07.472Z,10.06
2023-03-29T07:56:07.470Z,10.03
2023-03-29T07:57:07.550Z,10.18
2023-03-29T07:58:07.559Z,10.25
2023-03-29T07:59:07.598Z,9.90
2023-03-29T08:00:07.607Z,9.94
2023-03-29T08:01:07.649Z,9.66
2023-03-29T08:02:07.631Z,9.88
2023-03-29T08:03:07.806Z,10.03
2023-03-29T08:04:07.852Z,10.23
2023-03-29T08:05:07.882Z,10.28
2023-03-29T08:06:07.845Z,10.27
2023-03-29T08:07:07.931Z,10.33
2023-03-29T08:08:07.905Z,10.17
2023-03-29T08:09:07.923Z,9.90
2023-03-29T08:10:07.977Z,9.74
2023-03-29T08:11:08.018Z,9.95
2023-03-29T08:12:08.053Z,10.00
2023-03-29T08:13:08.054Z,10.15
2023-03-29T08:14:08.074Z,10.33
2023-03-29T08:15:08.113Z,10.30
2023-03-29T08:16:08.142Z,10.36
2023-03-29T08:17:08.245Z,10.39
2023-03-29T08:18:08.317Z,10.55
2023-03-29T08:19:08.197Z,10.71
2023-03-29T08:20:08.314Z,10.69
2023-03-29T08:21:08.223Z,10.57
2023-03-29T08:22:08.279Z,10.61
2023-03-29T08:23:08.298Z,10.21
2023-03-29T08:24:08.322Z,10.43
2023-03-29T08:25:08.314Z,10.68
2023-03-29T08:26:08.327Z,10.36
2023-03-29T08:27:08.446Z,10.12
2023-03-29T08:28:08.368Z,9.99
2023-03-29T08:29:08.382Z,10.24
2023-03-29T08:30:08.431Z,10.39
2023-03-29T08:31:08.446Z,10.61
2023-03-29T08:32:08.464Z,10.64
2023-03-29T08:33:08.567Z,10.89
2023-03-29T08:34:08.520Z,10.67
2023-03-29T08:35:08.596Z,10.77
2023-03-29T08:36:08.691Z,10.82
2023-03-29T08:37:08.637Z,10.87
2023-03-29T08:38:08.630Z,10.46
2023-03-29T08:39:08.712Z,10.31
2023-03-29T08:40:08.717Z,10.24
2023-03-29T08:41:08.756Z,10.41
2023-03-29T08:42:08.861Z,10.55
2023-03-29T08:43:08.876Z,10.24
2023-03-29T08:44:08.864Z,10.33
2023-03-29T08:45:08.863Z,10.33
2023-03-29T08:46:08.866Z,10.42
2023-03-29T08:47:08.871Z,10.39
2023-03-29T08:48:08.946Z,10.41
2023-03-29T08:49:08.979Z,10.51
2023-03-29T08:50:09.088Z,10.59
2023-03-29T08:51:10.167Z,10.48
2023-03-29T08:52:09.084Z,10.62
2023-03-29T08:53:09.124Z,10.69
2023-03-29T08:54:09.232Z,11.02
2023-03-29T08:55:09.171Z,10.71
2023-03-29T08:56:09.228Z,10.53
2023-03-29T08:57:09.231Z,10.61
2023-03-29T08:58:09.257Z,10.72
2023-03-29T08:59:09.387Z,10.97
2023-03-29T09:00:09.362Z,10.94
2023-03-29T09:01:09.440Z,11.10
2023-03-29T09:02:09.496Z,11.20
2023-03-29T09:03:09.623Z,11.05
2023-03-29T09:04:09.568Z,11.15
2023-03-29T09:05:09.545Z,11.22
2023-03-29T09:06:09.568Z,11.01
2023-03-29T09:07:09.669Z,11.12
2023-03-29T09:08:09.603Z,11.16
2023-03-29T09:09:09.637Z,11.26
2023-03-29T09:10:09.708Z,11.08
2023-03-29T09:11:09.771Z,10.90
2023-03-29T09:12:09.768Z,11.12
2023-03-29T09:13:09.811Z,10.90
2023-03-29T09:14:09.743Z,11.00
2023-03-29T09:15:09.827Z,11.25
2023-03-29T09:16:09.875Z,11.45
2023-03-29T09:17:09.872Z,11.43
2023-03-29T09:18:10.048Z,11.55
2023-03-29T09:19:09.935Z,11.48
2023-03-29T09:20:09.970Z,11.55
2023-03-29T09:21:10.011Z,11.60
2023-03-29T09:22:10.050Z,11.55
2023-03-29T09:23:10.073Z,11.53
2023-03-29T09:24:10.374Z,11.83
2023-03-29T09:25:10.325Z,11.62
2023-03-29T09:26:10.427Z,11.33
2023-03-29T09:27:10.367Z,10.94
2023-03-29T09:28:10.357Z,11.00
2023-03-29T09:29:10.370Z,11.43
2023-03-29T09:30:10.334Z,11.81
2023-03-29T09:31:10.443Z,12.20
2023-03-29T09:32:10.413Z,12.48
2023-03-29T09:33:10.669Z,12.32
2023-03-29T09:34:10.545Z,12.17
2023-03-29T09:35:10.601Z,12.39
2023-03-29T09:36:10.639Z,12.30
2023-03-29T09:37:10.657Z,12.55
2023-03-29T09:38:10.731Z,11.96
2023-03-29T09:39:10.717Z,12.00
2023-03-29T09:40:10.739Z,12.07
2023-03-29T09:41:10.756Z,12.32
2023-03-29T09:42:10.805Z,12.02
2023-03-29T09:43:10.825Z,12.30
2023-03-29T09:44:23.901Z,12.40
2023-03-29T09:45:10.905Z,12.37
2023-03-29T09:46:11.001Z,12.33
2023-03-29T09:47:11.032Z,12.07
2023-03-29T09:48:11.177Z,12.26
2023-03-29T09:49:11.138Z,12.25
2023-03-29T09:50:23.074Z,12.32
2023-03-29T09:51:11.129Z,12.39
2023-03-29T09:52:11.188Z,12.53
2023-03-29T09:53:11.180Z,12.17
2023-03-29T09:54:11.182Z,12.30
2023-03-29T09:55:11.213Z,12.12
2023-03-29T09:56:11.342Z,12.21
2023-03-29T09:57:11.310Z,12.17
2023-03-29T09:58:11.344Z,12.39
2023-03-29T09:59:11.370Z,12.75
2023-03-29T10:00:11.415Z,12.87
2023-03-29T10:01:11.452Z,12.91
2023-03-29T10:02:11.486Z,12.93
2023-03-29T10:03:11.565Z,12.76
2023-03-29T10:04:11.649Z,12.43
2023-03-29T10:05:11.548Z,12.47
2023-03-29T10:06:11.578Z,12.58
2023-03-29T10:07:11.699Z,12.75
2023-03-29T10:08:11.668Z,12.61
2023-03-29T10:09:11.734Z,12.53
2023-03-29T10:10:11.706Z,12.48
2023-03-29T10:11:11.957Z,12.61
2023-03-29T10:12:11.737Z,12.40
2023-03-29T10:13:11.794Z,12.37
2023-03-29T10:14:11.829Z,12.61
2023-03-29T10:15:19.820Z,12.53
2023-03-29T10:16:11.893Z,12.53
2023-03-29T10:17:11.943Z,12.32
2023-03-29T10:18:12.056Z,12.44
2023-03-29T10:19:12.055Z,12.48
2023-03-29T10:20:12.272Z,12.57
2023-03-29T10:21:12.076Z,12.61
2023-03-29T10:22:12.145Z,12.39
2023-03-29T10:23:12.172Z,12.08
2023-03-29T10:24:12.172Z,12.21
2023-03-29T10:25:12.202Z,12.02
2023-03-29T10:26:12.230Z,12.14
2023-03-29T10:27:12.246Z,12.45
2023-03-29T10:28:12.293Z,12.58
2023-03-29T10:29:12.304Z,12.28
2023-03-29T10:30:12.331Z,12.23
2023-03-29T10:31:12.335Z,12.51
2023-03-29T10:32:12.364Z,13.01
2023-03-29T10:33:12.435Z,13.05
2023-03-29T10:34:12.459Z,12.51
2023-03-29T10:35:12.495Z,12.65
2023-03-29T10:36:12.584Z,12.84
2023-03-29T10:37:12.542Z,12.81
2023-03-29T10:38:12.614Z,12.66
2023-03-29T10:39:12.605Z,12.32
2023-03-29T10:40:12.641Z,12.28
2023-03-29T10:41:12.720Z,12.40
2023-03-29T10:42:12.908Z,12.44
2023-03-29T10:43:12.811Z,12.40
2023-03-29T10:44:12.824Z,12.50
2023-03-29T10:46:38.882Z,12.78
2023-03-29T10:47:38.848Z,12.43
2023-03-29T10:48:38.919Z,12.08
2023-03-29T10:49:38.948Z,11.81
2023-03-29T10:50:38.998Z,12.10
2023-03-29T10:51:39.007Z,12.29
2023-03-29T10:52:39.026Z,12.36
2023-03-29T10:53:39.045Z,12.50
2023-03-29T10:54:39.042Z,12.73
2023-03-29T10:55:39.082Z,12.75
2023-03-29T10:56:39.158Z,12.48
2023-03-29T10:57:39.172Z,12.44
2023-03-29T10:58:39.192Z,12.57
2023-03-29T10:59:39.281Z,12.80
2023-03-29T11:00:39.222Z,13.02
2023-03-29T11:01:39.273Z,12.91
2023-03-29T11:02:39.405Z,12.99
2023-03-29T11:03:39.433Z,13.21
2023-03-29T11:04:39.429Z,12.62
2023-03-29T11:05:39.489Z,12.66
2023-03-29T11:06:39.520Z,12.70
2023-03-29T11:07:39.604Z,12.48
2023-03-29T11:08:39.588Z,12.68
2023-03-29T11:09:39.590Z,12.81
2023-03-29T11:10:39.633Z,12.86
2023-03-29T11:11:39.674Z,12.90
2023-03-29T11:12:39.703Z,12.90
2023-03-29T11:13:39.664Z,13.09
2023-03-29T11:14:39.694Z,13.19
2023-03-29T11:15:39.818Z,12.94
2023-03-29T11:16:39.787Z,12.87
2023-03-29T11:17:39.863Z,12.95
2023-03-29T11:18:39.874Z,13.27
2023-03-29T11:19:39.931Z,13.57
2023-03-29T11:20:39.972Z,13.86
2023-03-29T11:21:40.023Z,14.08
2023-03-29T11:22:40.613Z,13.57
2023-03-29T11:23:40.087Z,13.64
2023-03-29T11:24:40.115Z,13.36
2023-03-29T11:25:40.128Z,13.09
2023-03-29T11:26:40.127Z,12.99
2023-03-29T11:27:40.146Z,12.63
2023-03-29T11:28:40.207Z,12.57
2023-03-29T11:29:40.244Z,12.61
2023-03-29T11:30:40.280Z,12.66
2023-03-29T11:31:40.351Z,12.39
2023-03-29T11:32:40.417Z,12.44
2023-03-29T11:33:40.395Z,12.68
2023-03-29T11:34:40.435Z,12.57
2023-03-29T11:35:40.672Z,12.65
2023-03-29T11:36:40.481Z,12.84
2023-03-29T11:37:40.521Z,12.94
2023-03-29T11:38:41.785Z,13.11
2023-03-29T11:39:40.686Z,12.94
2023-03-29T11:40:40.642Z,13.37
2023-03-29T11:41:40.646Z,13.47
2023-03-29T11:42:40.651Z,13.68
2023-03-29T11:43:40.717Z,13.49
2023-03-29T11:44:40.813Z,13.46
2023-03-29T11:45:40.865Z,13.46
2023-03-29T11:46:40.979Z,13.57
2023-03-29T11:47:40.924Z,13.31
2023-03-29T11:48:40.936Z,13.28
2023-03-29T11:49:40.994Z,13.03
2023-03-29T11:50:41.233Z,12.98
2023-03-29T11:51:41.031Z,13.03
2023-03-29T11:52:41.096Z,12.99
2023-03-29T11:53:41.091Z,12.98
2023-03-29T11:54:41.115Z,12.86
2023-03-29T11:55:41.172Z,12.80
2023-03-29T11:56:41.368Z,12.98
2023-03-29T11:57:41.281Z,13.02
2023-03-29T11:58:41.281Z,13.37
2023-03-29T11:59:41.299Z,13.43
2023-03-29T12:00:41.315Z,13.61
2023-03-29T12:01:41.424Z,13.57
2023-03-29T12:02:41.587Z,13.67
2023-03-29T12:03:42.209Z,13.70
2023-03-29T12:04:41.731Z,13.58
2023-03-29T12:05:41.499Z,13.71
2023-03-29T12:06:41.518Z,13.47
2023-03-29T12:07:41.557Z,13.33
2023-03-29T12:08:41.600Z,13.09
2023-03-29T12:09:41.615Z,12.90
2023-03-29T12:10:41.631Z,12.99
2023-03-29T12:11:41.660Z,12.98
2023-03-29T12:12:41.704Z,12.81
2023-03-29T12:13:41.733Z,13.02
2023-03-29T12:14:41.722Z,13.36
2023-03-29T12:15:41.751Z,13.67
2023-03-29T12:16:41.835Z,13.62
2023-03-29T12:17:41.936Z,13.65
2023-03-29T12:18:41.941Z,13.57
2023-03-29T12:19:43.663Z,13.45
2023-03-29T12:20:41.960Z,13.01
2023-03-29T12:21:42.013Z,12.88
2023-03-29T12:22:42.091Z,13.01
2023-03-29T12:23:42.141Z,13.11
2023-03-29T12:24:42.176Z,13.33
2023-03-29T12:25:42.230Z,13.11
2023-03-29T12:26:42.237Z,13.09
2023-03-29T12:27:42.274Z,12.98
2023-03-29T12:28:42.287Z,12.76
2023-03-29T12:29:42.321Z,12.83
2023-03-29T12:30:42.349Z,12.87
2023-03-29T12:31:42.361Z,13.12
2023-03-29T12:32:42.406Z,13.05
2023-03-29T12:33:42.409Z,13.37
2023-03-29T12:34:42.497Z,13.05
2023-03-29T12:35:42.519Z,13.02
2023-03-29T12:36:42.427Z,12.68
2023-03-29T12:37:42.476Z,12.57
2023-03-29T12:38:42.477Z,12.63
2023-03-29T12:39:42.714Z,12.51
2023-03-29T12:40:42.551Z,12.48
2023-03-29T12:41:42.573Z,12.65
2023-03-29T12:42:42.644Z,12.69
2023-03-29T12:43:42.644Z,12.61
2023-03-29T12:44:42.691Z,12.62
2023-03-29T12:45:42.800Z,12.66
2023-03-29T12:46:42.818Z,12.80
2023-03-29T12:47:42.838Z,12.43
2023-03-29T12:48:42.828Z,12.55
2023-03-29T12:49:42.873Z,12.48
2023-03-29T12:50:42.944Z,12.26
2023-03-29T12:51:42.954Z,12.28
2023-03-29T12:52:42.954Z,12.18
2023-03-29T12:53:43.029Z,12.30
2023-03-29T12:54:43.070Z,12.30
2023-03-29T12:55:43.114Z,12.43
2023-03-29T12:56:43.209Z,12.35
2023-03-29T12:57:43.201Z,12.12
2023-03-29T12:58:43.225Z,12.21
2023-03-29T12:59:43.270Z,12.21
2023-03-29T13:00:43.618Z,12.37
2023-03-29T13:01:43.425Z,12.36
2023-03-29T13:02:43.370Z,12.66
2023-03-29T13:03:43.382Z,12.70
2023-03-29T13:04:43.422Z,12.58
2023-03-29T13:05:43.515Z,12.63
2023-03-29T13:06:43.548Z,12.61
2023-03-29T13:07:43.608Z,12.50
2023-03-29T13:08:43.744Z,12.70
2023-03-29T13:09:43.714Z,12.68